sensor_id;sensor_type;location;lat;lon;timestamp;temperature;humidity
16625;DHT22;8426;48.496;9.098;2023-03-13T00:04:52;8.20;99.90
16625;DHT22;8426;48.496;9.098;2023-03-13T00:09:55;8.30;99.90
16625;DHT22;8426;48.496;9.098;2023-03-13T00:14:58;8.30;99.90
16625;DHT22;8426;48.496;9.098;2023-03-13T00:20:04;8.30;99.90
16625;DHT22;8426;48.496;9.098;2023-03-13T00:25:10;8.40;99.90
16625;DHT22;8426;48.496;9.098;2023-03-13T00:30:14;8.40;99.90
16625;DHT22;8426;48.496;9.098;2023-03-13T00:35:18;8.40;99.90
16625;DHT22;8426;48.496;9.098;2023-03-13T00:40:22;8.50;99.90
16625;DHT22;8426;48.496;9.098;2023-03-13T00:45:25;8.50;99.90
16625;DHT22;8426;48.496;9.098;2023-03-13T00:50:30;8.50;99.90
16625;DHT22;8426;48.496;9.098;2023-03-13T00:55:35;8.50;99.90
16625;DHT22;8426;48.496;9.098;2023-03-13T01:00:39;8.70;99.90
16625;DHT22;8426;48.496;9.098;2023-03-13T01:05:43;8.80;99.90
16625;DHT22;8426;48.496;9.098;2023-03-13T01:10:47;8.70;99.90
16625;DHT22;8426;48.496;9.098;2023-03-13T01:15:50;8.80;99.90
16625;DHT22;8426;48.496;9.098;2023-03-13T01:20:55;8.80;99.90
16625;DHT22;8426;48.496;9.098;2023-03-13T01:25:58;8.70;99.90
16625;DHT22;8426;48.496;9.098;2023-03-13T01:31:10;8.60;99.90
16625;DHT22;8426;48.496;9.098;2023-03-13T01:36:16;8.70;99.90
16625;DHT22;8426;48.496;9.098;2023-03-13T01:41:21;8.70;99.90
16625;DHT22;8426;48.496;9.098;2023-03-13T01:46:27;8.80;99.90
16625;DHT22;8426;48.496;9.098;2023-03-13T01:51:37;8.80;99.90
16625;DHT22;8426;48.496;9.098;2023-03-13T01:56:46;8.80;99.90
16625;DHT22;8426;48.496;9.098;2023-03-13T02:01:54;8.80;99.90
16625;DHT22;8426;48.496;9.098;2023-03-13T02:07:06;8.90;99.90
16625;DHT22;8426;48.496;9.098;2023-03-13T02:12:12;8.90;99.90
16625;DHT22;8426;48.496;9.098;2023-03-13T02:17:17;8.90;99.90
16625;DHT22;8426;48.496;9.098;2023-03-13T02:22:27;8.80;99.90
16625;DHT22;8426;48.496;9.098;2023-03-13T02:27:33;8.80;99.90
16625;DHT22;8426;48.496;9.098;2023-03-13T02:32:38;9.00;99.90
16625;DHT22;8426;48.496;9.098;2023-03-13T02:37:43;9.00;99.90
16625;DHT22;8426;48.496;9.098;2023-03-13T02:42:52;9.20;99.90
16625;DHT22;8426;48.496;9.098;2023-03-13T02:47:58;9.20;99.90
16625;DHT22;8426;48.496;9.098;2023-03-13T02:53:04;9.30;99.90
16625;DHT22;8426;48.496;9.098;2023-03-13T02:58:16;9.50;99.90
16625;DHT22;8426;48.496;9.098;2023-03-13T03:03:21;9.50;99.90
16625;DHT22;8426;48.496;9.098;2023-03-13T03:08:24;9.40;99.90
16625;DHT22;8426;48.496;9.098;2023-03-13T03:13:29;9.50;99.90
16625;DHT22;8426;48.496;9.098;2023-03-13T03:18:32;9.60;99.90
16625;DHT22;8426;48.496;9.098;2023-03-13T03:23:36;9.70;99.90
16625;DHT22;8426;48.496;9.098;2023-03-13T03:28:42;9.60;99.90
16625;DHT22;8426;48.496;9.098;2023-03-13T03:33:46;9.60;99.90
16625;DHT22;8426;48.496;9.098;2023-03-13T03:38:50;9.50;99.90
16625;DHT22;8426;48.496;9.098;2023-03-13T03:43:55;9.70;99.90
16625;DHT22;8426;48.496;9.098;2023-03-13T03:48:59;9.70;99.90
16625;DHT22;8426;48.496;9.098;2023-03-13T03:54:02;9.70;99.90
16625;DHT22;8426;48.496;9.098;2023-03-13T03:59:07;9.60;99.90
16625;DHT22;8426;48.496;9.098;2023-03-13T04:04:10;9.70;99.90
16625;DHT22;8426;48.496;9.098;2023-03-13T04:09:13;9.70;99.90
16625;DHT22;8426;48.496;9.098;2023-03-13T04:14:18;9.90;99.90
16625;DHT22;8426;48.496;9.098;2023-03-13T04:19:21;9.80;99.90
16625;DHT22;8426;48.496;9.098;2023-03-13T04:24:26;9.90;99.90
16625;DHT22;8426;48.496;9.098;2023-03-13T04:29:32;9.80;99.90
16625;DHT22;8426;48.496;9.098;2023-03-13T04:34:37;9.80;99.90
16625;DHT22;8426;48.496;9.098;2023-03-13T04:39:41;9.90;99.90
16625;DHT22;8426;48.496;9.098;2023-03-13T04:44:46;10.10;99.90
16625;DHT22;8426;48.496;9.098;2023-03-13T04:49:49;10.00;99.90
16625;DHT22;8426;48.496;9.098;2023-03-13T04:54:53;10.10;99.90
16625;DHT22;8426;48.496;9.098;2023-03-13T04:59:59;10.10;99.90
16625;DHT22;8426;48.496;9.098;2023-03-13T05:05:07;10.10;99.90
16625;DHT22;8426;48.496;9.098;2023-03-13T05:10:12;10.20;99.90
16625;DHT22;8426;48.496;9.098;2023-03-13T05:15:16;10.10;99.90
16625;DHT22;8426;48.496;9.098;2023-03-13T05:20:22;10.00;99.90
16625;DHT22;8426;48.496;9.098;2023-03-13T05:25:25;10.10;99.90
16625;DHT22;8426;48.496;9.098;2023-03-13T05:30:31;10.20;99.90
16625;DHT22;8426;48.496;9.098;2023-03-13T05:35:34;10.30;99.90
16625;DHT22;8426;48.496;9.098;2023-03-13T05:40:39;10.30;99.90
16625;DHT22;8426;48.496;9.098;2023-03-13T05:45:44;10.40;99.90
16625;DHT22;8426;48.496;9.098;2023-03-13T05:50:56;10.50;99.90
16625;DHT22;8426;48.496;9.098;2023-03-13T05:56:01;10.50;99.90
16625;DHT22;8426;48.496;9.098;2023-03-13T06:01:11;10.60;99.90
16625;DHT22;8426;48.496;9.098;2023-03-13T06:06:17;10.70;99.90
16625;DHT22;8426;48.496;9.098;2023-03-13T06:11:22;10.70;99.90
16625;DHT22;8426;48.496;9.098;2023-03-13T06:16:28;10.60;99.90
16625;DHT22;8426;48.496;9.098;2023-03-13T06:21:35;10.70;99.90
16625;DHT22;8426;48.496;9.098;2023-03-13T06:26:42;10.80;99.90
16625;DHT22;8426;48.496;9.098;2023-03-13T06:31:52;10.80;99.90
16625;DHT22;8426;48.496;9.098;2023-03-13T06:37:02;10.90;99.90
16625;DHT22;8426;48.496;9.098;2023-03-13T06:42:07;11.00;99.90
16625;DHT22;8426;48.496;9.098;2023-03-13T06:47:12;11.20;99.90
16625;DHT22;8426;48.496;9.098;2023-03-13T06:52:16;11.40;99.90
16625;DHT22;8426;48.496;9.098;2023-03-13T06:57:21;11.40;99.90
16625;DHT22;8426;48.496;9.098;2023-03-13T07:02:27;11.40;99.90
16625;DHT22;8426;48.496;9.098;2023-03-13T07:07:35;11.40;99.90
16625;DHT22;8426;48.496;9.098;2023-03-13T07:12:41;11.50;99.90
16625;DHT22;8426;48.496;9.098;2023-03-13T07:17:46;11.50;99.90
16625;DHT22;8426;48.496;9.098;2023-03-13T07:22:52;11.50;99.90
16625;DHT22;8426;48.496;9.098;2023-03-13T07:27:56;11.50;99.90
16625;DHT22;8426;48.496;9.098;2023-03-13T07:33:12;11.60;99.90
16625;DHT22;8426;48.496;9.098;2023-03-13T07:38:16;12.00;99.90
16625;DHT22;8426;48.496;9.098;2023-03-13T07:43:31;12.30;99.90
16625;DHT22;8426;48.496;9.098;2023-03-13T07:48:38;12.50;99.90
16625;DHT22;8426;48.496;9.098;2023-03-13T07:53:43;12.50;99.90
16625;DHT22;8426;48.496;9.098;2023-03-13T07:58:46;12.60;99.90
16625;DHT22;8426;48.496;9.098;2023-03-13T08:03:53;12.60;99.90
16625;DHT22;8426;48.496;9.098;2023-03-13T08:08:57;12.60;99.90
16625;DHT22;8426;48.496;9.098;2023-03-13T08:14:02;12.50;99.90
16625;DHT22;8426;48.496;9.098;2023-03-13T08:19:09;12.40;99.90
16625;DHT22;8426;48.496;9.098;2023-03-13T08:24:17;12.40;99.90
16625;DHT22;8426;48.496;9.098;2023-03-13T08:29:21;12.70;99.90
16625;DHT22;8426;48.496;9.098;2023-03-13T08:34:26;13.10;99.90
16625;DHT22;8426;48.496;9.098;2023-03-13T08:39:33;13.40;99.90
16625;DHT22;8426;48.496;9.098;2023-03-13T08:44:39;13.60;99.90
16625;DHT22;8426;48.496;9.098;2023-03-13T08:49:45;13.70;99.90
16625;DHT22;8426;48.496;9.098;2023-03-13T08:54:49;13.70;99.90
16625;DHT22;8426;48.496;9.098;2023-03-13T08:59:54;13.80;99.90
16625;DHT22;8426;48.496;9.098;2023-03-13T09:05:00;13.80;99.90
16625;DHT22;8426;48.496;9.098;2023-03-13T09:10:09;13.90;99.90
16625;DHT22;8426;48.496;9.098;2023-03-13T09:15:15;13.80;99.90
16625;DHT22;8426;48.496;9.098;2023-03-13T09:20:23;14.00;99.90
16625;DHT22;8426;48.496;9.098;2023-03-13T09:25:37;14.40;99.90
16625;DHT22;8426;48.496;9.098;2023-03-13T09:30:40;15.80;99.90
16625;DHT22;8426;48.496;9.098;2023-03-13T09:35:47;17.70;99.90
16625;DHT22;8426;48.496;9.098;2023-03-13T09:41:03;19.10;99.90
16625;DHT22;8426;48.496;9.098;2023-03-13T09:46:17;18.60;99.90
16625;DHT22;8426;48.496;9.098;2023-03-13T09:51:27;17.60;99.90
16625;DHT22;8426;48.496;9.098;2023-03-13T09:56:38;16.70;99.90
16625;DHT22;8426;48.496;9.098;2023-03-13T10:01:53;16.50;99.90
16625;DHT22;8426;48.496;9.098;2023-03-13T10:07:01;16.30;99.90
16625;DHT22;8426;48.496;9.098;2023-03-13T10:12:11;17.20;99.90
16625;DHT22;8426;48.496;9.098;2023-03-13T10:17:25;18.60;99.90
16625;DHT22;8426;48.496;9.098;2023-03-13T10:22:35;19.10;99.90
16625;DHT22;8426;48.496;9.098;2023-03-13T10:27:44;18.60;99.90
16625;DHT22;8426;48.496;9.098;2023-03-13T10:32:58;18.60;99.90
16625;DHT22;8426;48.496;9.098;2023-03-13T10:38:27;18.10;99.90
16625;DHT22;8426;48.496;9.098;2023-03-13T10:43:49;18.20;99.90
16625;DHT22;8426;48.496;9.098;2023-03-13T10:49:00;17.80;99.90
16625;DHT22;8426;48.496;9.098;2023-03-13T10:54:22;18.30;99.90
16625;DHT22;8426;48.496;9.098;2023-03-13T10:59:26;18.60;99.90
16625;DHT22;8426;48.496;9.098;2023-03-13T11:04:31;18.50;99.90
16625;DHT22;8426;48.496;9.098;2023-03-13T11:09:39;18.50;99.90
16625;DHT22;8426;48.496;9.098;2023-03-13T11:14:43;18.20;99.90
16625;DHT22;8426;48.496;9.098;2023-03-13T11:25:21;18.40;99.90
16625;DHT22;8426;48.496;9.098;2023-03-13T11:30:48;18.80;99.90
16625;DHT22;8426;48.496;9.098;2023-03-13T11:36:08;18.90;99.90
16625;DHT22;8426;48.496;9.098;2023-03-13T11:41:39;18.90;99.90
16625;DHT22;8426;48.496;9.098;2023-03-13T11:52:27;19.90;99.90
16625;DHT22;8426;48.496;9.098;2023-03-13T11:57:39;20.60;99.90
16625;DHT22;8426;48.496;9.098;2023-03-13T12:02:48;20.60;99.90
16625;DHT22;8426;48.496;9.098;2023-03-13T12:08:02;20.40;99.90
16625;DHT22;8426;48.496;9.098;2023-03-13T12:13:12;20.10;99.90
16625;DHT22;8426;48.496;9.098;2023-03-13T12:18:22;19.70;99.90
16625;DHT22;8426;48.496;9.098;2023-03-13T12:23:33;20.00;99.90
16625;DHT22;8426;48.496;9.098;2023-03-13T12:28:42;20.30;99.90
16625;DHT22;8426;48.496;9.098;2023-03-13T12:33:54;20.40;99.90
16625;DHT22;8426;48.496;9.098;2023-03-13T12:39:08;20.60;99.90
16625;DHT22;8426;48.496;9.098;2023-03-13T12:44:17;21.00;99.90
16625;DHT22;8426;48.496;9.098;2023-03-13T12:55:39;20.80;99.90
16625;DHT22;8426;48.496;9.098;2023-03-13T13:00:48;20.80;99.90
16625;DHT22;8426;48.496;9.098;2023-03-13T13:06:02;20.90;99.90
16625;DHT22;8426;48.496;9.098;2023-03-13T13:11:39;20.80;99.90
16625;DHT22;8426;48.496;9.098;2023-03-13T13:16:50;21.20;99.90
16625;DHT22;8426;48.496;9.098;2023-03-13T13:27:45;21.40;99.90
16625;DHT22;8426;48.496;9.098;2023-03-13T13:32:51;21.40;99.90
16625;DHT22;8426;48.496;9.098;2023-03-13T13:38:20;21.10;99.90
16625;DHT22;8426;48.496;9.098;2023-03-13T13:43:24;20.90;99.90
16625;DHT22;8426;48.496;9.098;2023-03-13T13:48:31;20.90;99.90
16625;DHT22;8426;48.496;9.098;2023-03-13T13:53:43;20.90;99.90
16625;DHT22;8426;48.496;9.098;2023-03-13T13:58:47;21.10;99.90
16625;DHT22;8426;48.496;9.098;2023-03-13T14:03:56;21.60;99.90
16625;DHT22;8426;48.496;9.098;2023-03-13T14:09:10;21.80;99.90
16625;DHT22;8426;48.496;9.098;2023-03-13T14:14:16;21.70;99.90
16625;DHT22;8426;48.496;9.098;2023-03-13T14:19:26;21.30;99.90
16625;DHT22;8426;48.496;9.098;2023-03-13T14:24:31;20.90;99.90
16625;DHT22;8426;48.496;9.098;2023-03-13T14:29:34;20.90;99.90
16625;DHT22;8426;48.496;9.098;2023-03-13T14:34:42;20.60;99.90
16625;DHT22;8426;48.496;9.098;2023-03-13T14:39:45;20.50;99.90
16625;DHT22;8426;48.496;9.098;2023-03-13T14:44:50;20.90;99.90
16625;DHT22;8426;48.496;9.098;2023-03-13T14:49:57;20.80;99.90
16625;DHT22;8426;48.496;9.098;2023-03-13T14:55:03;20.80;99.90
16625;DHT22;8426;48.496;9.098;2023-03-13T15:00:37;20.60;99.90
16625;DHT22;8426;48.496;9.098;2023-03-13T15:05:44;19.80;99.90
16625;DHT22;8426;48.496;9.098;2023-03-13T15:10:49;19.50;99.90
16625;DHT22;8426;48.496;9.098;2023-03-13T15:15:52;19.80;99.90
16625;DHT22;8426;48.496;9.098;2023-03-13T15:21:22;19.80;99.90
16625;DHT22;8426;48.496;9.098;2023-03-13T15:26:28;19.70;99.90
16625;DHT22;8426;48.496;9.098;2023-03-13T15:31:32;19.60;99.90
16625;DHT22;8426;48.496;9.098;2023-03-13T15:36:36;19.40;99.90
16625;DHT22;8426;48.496;9.098;2023-03-13T15:41:43;19.20;99.90
16625;DHT22;8426;48.496;9.098;2023-03-13T15:46:50;19.10;99.90
16625;DHT22;8426;48.496;9.098;2023-03-13T15:51:55;19.00;99.90
16625;DHT22;8426;48.496;9.098;2023-03-13T15:57:14;18.80;99.90
16625;DHT22;8426;48.496;9.098;2023-03-13T16:02:22;19.00;99.90
16625;DHT22;8426;48.496;9.098;2023-03-13T16:07:31;18.50;99.90
16625;DHT22;8426;48.496;9.098;2023-03-13T16:12:34;18.30;99.90
16625;DHT22;8426;48.496;9.098;2023-03-13T16:17:40;18.40;99.90
16625;DHT22;8426;48.496;9.098;2023-03-13T16:22:44;18.60;99.90
16625;DHT22;8426;48.496;9.098;2023-03-13T16:27:48;18.80;99.90
16625;DHT22;8426;48.496;9.098;2023-03-13T16:32:55;18.70;99.90
16625;DHT22;8426;48.496;9.098;2023-03-13T16:38:01;18.40;99.90
16625;DHT22;8426;48.496;9.098;2023-03-13T16:43:05;18.20;99.90
16625;DHT22;8426;48.496;9.098;2023-03-13T16:48:14;17.90;99.90
16625;DHT22;8426;48.496;9.098;2023-03-13T16:53:20;17.50;99.90
16625;DHT22;8426;48.496;9.098;2023-03-13T16:58:23;17.20;99.90
16625;DHT22;8426;48.496;9.098;2023-03-13T17:03:27;16.90;99.90
16625;DHT22;8426;48.496;9.098;2023-03-13T17:08:32;16.80;99.90
16625;DHT22;8426;48.496;9.098;2023-03-13T17:13:35;16.70;99.90
16625;DHT22;8426;48.496;9.098;2023-03-13T17:18:38;16.30;99.90
16625;DHT22;8426;48.496;9.098;2023-03-13T17:23:44;16.00;99.90
16625;DHT22;8426;48.496;9.098;2023-03-13T17:28:51;15.70;99.90
16625;DHT22;8426;48.496;9.098;2023-03-13T17:33:55;15.50;99.90
16625;DHT22;8426;48.496;9.098;2023-03-13T17:39:03;15.40;99.90
16625;DHT22;8426;48.496;9.098;2023-03-13T17:44:07;15.20;99.90
16625;DHT22;8426;48.496;9.098;2023-03-13T17:49:15;15.10;99.90
16625;DHT22;8426;48.496;9.098;2023-03-13T17:54:20;15.00;99.90
16625;DHT22;8426;48.496;9.098;2023-03-13T17:59:24;14.90;99.90
16625;DHT22;8426;48.496;9.098;2023-03-13T18:04:31;14.70;99.90
16625;DHT22;8426;48.496;9.098;2023-03-13T18:09:37;14.70;99.90
16625;DHT22;8426;48.496;9.098;2023-03-13T18:14:49;14.60;99.90
16625;DHT22;8426;48.496;9.098;2023-03-13T18:19:56;14.70;99.90
16625;DHT22;8426;48.496;9.098;2023-03-13T18:25:04;14.60;99.90
16625;DHT22;8426;48.496;9.098;2023-03-13T18:30:13;14.50;99.90
16625;DHT22;8426;48.496;9.098;2023-03-13T18:35:20;14.40;99.90
16625;DHT22;8426;48.496;9.098;2023-03-13T18:40:27;14.30;99.90
16625;DHT22;8426;48.496;9.098;2023-03-13T18:45:34;14.40;99.90
16625;DHT22;8426;48.496;9.098;2023-03-13T18:50:40;14.20;99.90
16625;DHT22;8426;48.496;9.098;2023-03-13T18:55:44;14.50;99.90
16625;DHT22;8426;48.496;9.098;2023-03-13T19:00:50;14.00;99.90
16625;DHT22;8426;48.496;9.098;2023-03-13T19:05:57;13.60;99.90
16625;DHT22;8426;48.496;9.098;2023-03-13T19:11:07;13.30;99.90
16625;DHT22;8426;48.496;9.098;2023-03-13T19:16:20;13.20;99.90
16625;DHT22;8426;48.496;9.098;2023-03-13T19:21:34;13.10;99.90
16625;DHT22;8426;48.496;9.098;2023-03-13T19:26:45;13.10;99.90
16625;DHT22;8426;48.496;9.098;2023-03-13T19:31:52;12.90;99.90
16625;DHT22;8426;48.496;9.098;2023-03-13T19:36:57;12.80;99.90
16625;DHT22;8426;48.496;9.098;2023-03-13T19:42:03;12.60;99.90
16625;DHT22;8426;48.496;9.098;2023-03-13T19:47:14;12.60;99.90
16625;DHT22;8426;48.496;9.098;2023-03-13T19:52:21;12.60;99.90
16625;DHT22;8426;48.496;9.098;2023-03-13T19:57:30;12.60;99.90
16625;DHT22;8426;48.496;9.098;2023-03-13T20:02:42;12.60;99.90
16625;DHT22;8426;48.496;9.098;2023-03-13T20:07:50;12.30;99.90
16625;DHT22;8426;48.496;9.098;2023-03-13T20:12:57;11.50;99.90
16625;DHT22;8426;48.496;9.098;2023-03-13T20:18:16;11.40;99.90
16625;DHT22;8426;48.496;9.098;2023-03-13T20:23:36;11.40;99.90
16625;DHT22;8426;48.496;9.098;2023-03-13T20:28:58;11.40;99.90
16625;DHT22;8426;48.496;9.098;2023-03-13T20:34:26;11.40;99.90
16625;DHT22;8426;48.496;9.098;2023-03-13T20:39:34;11.20;99.90
16625;DHT22;8426;48.496;9.098;2023-03-13T20:45:04;10.40;99.90
16625;DHT22;8426;48.496;9.098;2023-03-13T20:50:10;9.90;99.90
16625;DHT22;8426;48.496;9.098;2023-03-13T20:55:20;9.80;99.90
16625;DHT22;8426;48.496;9.098;2023-03-13T21:00:25;9.60;99.90
16625;DHT22;8426;48.496;9.098;2023-03-13T21:05:29;9.60;99.90
16625;DHT22;8426;48.496;9.098;2023-03-13T21:10:56;9.40;99.90
16625;DHT22;8426;48.496;9.098;2023-03-13T21:16:01;9.50;99.90
16625;DHT22;8426;48.496;9.098;2023-03-13T21:21:06;9.60;99.90
16625;DHT22;8426;48.496;9.098;2023-03-13T21:26:12;9.50;99.90
16625;DHT22;8426;48.496;9.098;2023-03-13T21:31:19;9.50;99.90
16625;DHT22;8426;48.496;9.098;2023-03-13T21:36:28;9.40;99.90
16625;DHT22;8426;48.496;9.098;2023-03-13T21:41:35;9.30;99.90
16625;DHT22;8426;48.496;9.098;2023-03-13T21:46:40;9.20;99.90
16625;DHT22;8426;48.496;9.098;2023-03-13T21:51:51;9.20;99.90
16625;DHT22;8426;48.496;9.098;2023-03-13T21:56:57;9.30;99.90
16625;DHT22;8426;48.496;9.098;2023-03-13T22:07:38;9.10;99.90
16625;DHT22;8426;48.496;9.098;2023-03-13T22:12:41;9.10;99.90
16625;DHT22;8426;48.496;9.098;2023-03-13T22:17:57;9.20;99.90
16625;DHT22;8426;48.496;9.098;2023-03-13T22:23:02;9.20;99.90
16625;DHT22;8426;48.496;9.098;2023-03-13T22:28:16;9.10;99.90
16625;DHT22;8426;48.496;9.098;2023-03-13T22:33:28;9.00;99.90
16625;DHT22;8426;48.496;9.098;2023-03-13T22:38:36;9.00;99.90
16625;DHT22;8426;48.496;9.098;2023-03-13T22:43:51;9.00;99.90
16625;DHT22;8426;48.496;9.098;2023-03-13T22:48:54;9.10;99.90
16625;DHT22;8426;48.496;9.098;2023-03-13T22:54:03;9.00;99.90
16625;DHT22;8426;48.496;9.098;2023-03-13T22:59:07;8.90;99.90
16625;DHT22;8426;48.496;9.098;2023-03-13T23:04:11;8.80;99.90
16625;DHT22;8426;48.496;9.098;2023-03-13T23:09:24;8.90;99.90
16625;DHT22;8426;48.496;9.098;2023-03-13T23:14:27;8.90;99.90
16625;DHT22;8426;48.496;9.098;2023-03-13T23:19:33;8.90;99.90
16625;DHT22;8426;48.496;9.098;2023-03-13T23:24:40;8.90;99.90
16625;DHT22;8426;48.496;9.098;2023-03-13T23:29:53;8.80;99.90
16625;DHT22;8426;48.496;9.098;2023-03-13T23:35:00;9.00;99.90
16625;DHT22;8426;48.496;9.098;2023-03-13T23:40:14;9.10;99.90
16625;DHT22;8426;48.496;9.098;2023-03-13T23:45:35;9.10;99.90
16625;DHT22;8426;48.496;9.098;2023-03-13T23:50:44;9.10;99.90
16625;DHT22;8426;48.496;9.098;2023-03-13T23:55:57;9.20;99.90
